createdAt,value
2022-10-09T00:01:05.101Z,6.50
2022-10-09T00:03:32.384Z,6.50
2022-10-09T00:05:59.613Z,6.40
2022-10-09T00:08:26.487Z,6.30
2022-10-09T00:10:53.528Z,6.30
2022-10-09T00:13:20.447Z,6.30
2022-10-09T00:15:48.099Z,6.20
2022-10-09T00:18:16.559Z,6.20
2022-10-09T00:20:46.176Z,6.20
2022-10-09T00:23:17.275Z,6.20
2022-10-09T00:26:01.229Z,6.10
2022-10-09T00:28:30.267Z,6.10
2022-10-09T00:30:57.543Z,6.10
2022-10-09T00:33:24.705Z,6.00
2022-10-09T00:35:51.950Z,6.00
2022-10-09T00:38:18.963Z,6.00
2022-10-09T00:40:45.882Z,6.00
2022-10-09T00:43:19.503Z,6.00
2022-10-09T00:45:58.680Z,6.00
2022-10-09T00:48:25.765Z,5.90
2022-10-09T00:50:56.425Z,5.90
2022-10-09T00:53:28.161Z,5.80
2022-10-09T00:55:55.391Z,5.80
2022-10-09T00:58:23.907Z,5.80
2022-10-09T01:00:53.469Z,5.80
2022-10-09T01:03:20.432Z,5.80
2022-10-09T01:06:15.263Z,5.80
2022-10-09T01:08:56.704Z,5.80
2022-10-09T01:11:58.833Z,5.70
2022-10-09T01:14:31.452Z,5.70
2022-10-09T01:17:29.156Z,5.70
2022-10-09T01:20:05.063Z,5.70
2022-10-09T01:22:51.994Z,5.70
2022-10-09T01:25:34.237Z,5.60
2022-10-09T01:28:02.902Z,5.60
2022-10-09T01:30:30.783Z,5.60
2022-10-09T01:32:59.045Z,5.60
2022-10-09T01:35:26.800Z,5.60
2022-10-09T01:37:55.772Z,5.50
2022-10-09T01:40:24.686Z,5.50
2022-10-09T01:42:52.232Z,5.50
2022-10-09T01:45:19.071Z,5.50
2022-10-09T01:47:46.368Z,5.40
2022-10-09T01:50:25.921Z,5.40
2022-10-09T01:52:57.559Z,5.40
2022-10-09T01:55:43.318Z,5.30
2022-10-09T01:58:31.421Z,5.30
2022-10-09T02:01:13.575Z,5.20
2022-10-09T02:03:44.416Z,5.20
2022-10-09T02:06:14.291Z,5.20
2022-10-09T02:08:43.805Z,5.20
2022-10-09T02:11:11.553Z,5.20
2022-10-09T02:13:38.737Z,5.20
2022-10-09T02:16:14.342Z,5.10
2022-10-09T02:18:47.565Z,5.10
2022-10-09T02:21:42.961Z,5.10
2022-10-09T02:24:16.895Z,5.10
2022-10-09T02:26:43.887Z,5.10
2022-10-09T02:29:12.985Z,5.10
2022-10-09T02:31:41.790Z,5.10
2022-10-09T02:34:19.959Z,5.10
2022-10-09T02:36:47.770Z,5.10
2022-10-09T02:39:15.014Z,5.00
2022-10-09T02:41:41.998Z,5.00
2022-10-09T02:44:09.429Z,5.00
2022-10-09T02:46:38.333Z,5.00
2022-10-09T02:49:06.164Z,4.90
2022-10-09T02:51:33.411Z,4.90
2022-10-09T02:54:00.333Z,4.90
2022-10-09T02:56:27.480Z,4.80
2022-10-09T02:58:54.826Z,4.80
2022-10-09T03:01:22.760Z,4.80
2022-10-09T03:03:49.959Z,4.80
2022-10-09T03:06:24.109Z,4.80
2022-10-09T03:08:52.436Z,4.80
2022-10-09T03:11:21.035Z,4.80
2022-10-09T03:13:48.122Z,4.80
2022-10-09T03:16:18.268Z,4.90
2022-10-09T03:18:46.121Z,4.90
2022-10-09T03:21:16.901Z,4.90
2022-10-09T03:23:44.281Z,4.90
2022-10-09T03:26:13.978Z,4.80
2022-10-09T03:28:43.388Z,4.80
2022-10-09T03:31:18.961Z,4.80
2022-10-09T03:33:58.085Z,4.80
2022-10-09T03:36:25.017Z,4.70
2022-10-09T03:38:51.913Z,4.70
2022-10-09T03:41:18.809Z,4.70
2022-10-09T03:43:45.656Z,4.70
2022-10-09T03:46:12.675Z,4.80
2022-10-09T03:48:39.625Z,4.80
2022-10-09T03:51:06.615Z,4.70
2022-10-09T03:53:33.893Z,4.80
2022-10-09T03:56:00.770Z,4.80
2022-10-09T03:58:27.801Z,4.80
2022-10-09T04:00:54.948Z,4.80
2022-10-09T04:03:22.299Z,4.70
2022-10-09T04:05:49.444Z,4.70
2022-10-09T04:08:16.322Z,4.70
2022-10-09T04:10:43.274Z,4.70
2022-10-09T04:13:10.578Z,4.70
2022-10-09T04:15:37.661Z,4.60
2022-10-09T04:18:05.228Z,4.60
2022-10-09T04:20:32.044Z,4.60
2022-10-09T04:22:59.401Z,4.60
2022-10-09T04:25:26.485Z,4.60
2022-10-09T04:27:53.384Z,4.60
2022-10-09T04:30:20.302Z,4.60
2022-10-09T04:32:48.402Z,4.60
2022-10-09T04:35:16.715Z,4.50
2022-10-09T04:37:43.700Z,4.50
2022-10-09T04:40:10.798Z,4.50
2022-10-09T04:42:37.932Z,4.50
2022-10-09T04:45:05.289Z,4.50
2022-10-09T04:47:33.210Z,4.50
2022-10-09T04:50:00.108Z,4.50
2022-10-09T04:52:27.086Z,4.40
2022-10-09T04:54:54.015Z,4.40
2022-10-09T04:57:21.493Z,4.40
2022-10-09T04:59:48.355Z,4.40
2022-10-09T05:02:15.349Z,4.40
2022-10-09T05:04:42.416Z,4.40
2022-10-09T05:07:09.337Z,4.40
2022-10-09T05:09:36.211Z,4.40
2022-10-09T05:12:03.101Z,4.40
2022-10-09T05:14:29.985Z,4.30
2022-10-09T05:17:13.487Z,4.30
2022-10-09T05:19:41.218Z,4.20
2022-10-09T05:22:08.122Z,4.20
2022-10-09T05:24:35.000Z,4.30
2022-10-09T05:27:01.875Z,4.30
2022-10-09T05:29:28.780Z,4.20
2022-10-09T05:31:55.732Z,4.20
2022-10-09T05:34:22.766Z,4.30
2022-10-09T05:36:49.646Z,4.30
2022-10-09T05:39:16.667Z,4.30
2022-10-09T05:41:43.581Z,4.30
2022-10-09T05:44:11.003Z,4.30
2022-10-09T05:46:37.930Z,4.40
2022-10-09T05:49:06.110Z,4.40
2022-10-09T05:51:35.488Z,4.40
2022-10-09T05:54:03.148Z,4.30
2022-10-09T05:56:39.865Z,4.40
2022-10-09T05:59:07.918Z,4.30
2022-10-09T06:01:40.591Z,4.30
2022-10-09T06:04:10.893Z,4.30
2022-10-09T06:06:39.898Z,4.30
2022-10-09T06:09:08.240Z,4.40
2022-10-09T06:11:37.601Z,4.40
2022-10-09T06:14:06.598Z,4.40
2022-10-09T06:16:36.039Z,4.40
2022-10-09T06:19:04.037Z,4.50
2022-10-09T06:21:31.062Z,4.50
2022-10-09T06:24:00.064Z,4.50
2022-10-09T06:26:31.605Z,4.50
2022-10-09T06:29:00.919Z,4.60
2022-10-09T06:31:30.098Z,4.70
2022-10-09T06:33:59.267Z,4.70
2022-10-09T06:36:28.341Z,4.80
2022-10-09T06:38:55.696Z,4.80
2022-10-09T06:41:24.725Z,4.90
2022-10-09T06:44:04.222Z,4.90
2022-10-09T06:46:37.294Z,4.90
2022-10-09T06:49:05.347Z,5.10
2022-10-09T06:51:33.030Z,5.20
2022-10-09T06:54:02.537Z,5.30
2022-10-09T06:56:31.485Z,5.30
2022-10-09T06:59:03.825Z,5.50
2022-10-09T07:01:34.625Z,5.50
2022-10-09T07:04:07.275Z,5.60
2022-10-09T07:06:38.425Z,5.70
2022-10-09T07:09:08.338Z,5.70
2022-10-09T07:11:38.433Z,5.80
2022-10-09T07:14:07.672Z,5.90
2022-10-09T07:16:37.113Z,6.00
2022-10-09T07:19:07.592Z,6.20
2022-10-09T07:21:35.655Z,6.30
2022-10-09T07:24:03.822Z,6.40
2022-10-09T07:26:32.673Z,6.50
2022-10-09T07:29:00.456Z,6.70
2022-10-09T07:31:27.451Z,6.70
2022-10-09T07:33:56.484Z,6.80
2022-10-09T07:36:24.045Z,6.90
2022-10-09T07:38:52.348Z,7.00
2022-10-09T07:41:19.955Z,7.10
2022-10-09T07:43:46.792Z,7.20
2022-10-09T07:46:15.897Z,7.30
2022-10-09T07:48:43.157Z,7.40
2022-10-09T07:51:17.457Z,7.50
2022-10-09T07:53:45.011Z,7.50
2022-10-09T07:56:15.755Z,7.70
2022-10-09T07:58:43.294Z,7.70
2022-10-09T08:01:10.489Z,7.80
2022-10-09T08:03:37.423Z,7.80
2022-10-09T08:06:05.136Z,7.90
2022-10-09T08:08:32.534Z,8.00
2022-10-09T08:10:59.907Z,8.10
2022-10-09T08:13:26.702Z,8.10
2022-10-09T08:15:53.655Z,8.20
2022-10-09T08:18:20.628Z,8.30
2022-10-09T08:21:01.593Z,8.40
2022-10-09T08:23:29.044Z,8.40
2022-10-09T08:25:56.141Z,8.60
2022-10-09T08:28:23.477Z,8.60
2022-10-09T08:30:50.520Z,8.70
2022-10-09T08:33:21.755Z,8.80
2022-10-09T08:35:49.974Z,8.90
2022-10-09T08:38:37.441Z,9.00
2022-10-09T08:41:16.765Z,9.10
2022-10-09T08:43:51.745Z,9.20
2022-10-09T08:47:03.704Z,9.30
2022-10-09T08:49:40.373Z,9.30
2022-10-09T08:52:28.051Z,9.40
2022-10-09T08:54:58.791Z,9.50
2022-10-09T08:57:30.028Z,9.50
2022-10-09T08:59:57.253Z,9.60
2022-10-09T09:02:53.800Z,9.80
2022-10-09T09:05:33.840Z,9.80
2022-10-09T09:08:08.755Z,9.90
2022-10-09T09:10:42.741Z,10.00
2022-10-09T09:13:31.468Z,10.00
2022-10-09T09:16:24.264Z,10.20
2022-10-09T09:19:24.535Z,10.20
2022-10-09T09:21:52.890Z,10.40
2022-10-09T09:24:51.356Z,10.50
2022-10-09T09:27:27.217Z,10.60
2022-10-09T09:30:12.479Z,10.60
2022-10-09T09:32:49.810Z,10.70
2022-10-09T09:35:21.804Z,10.80
2022-10-09T09:37:48.816Z,10.80
2022-10-09T09:40:36.214Z,11.00
2022-10-09T09:43:13.515Z,11.00
2022-10-09T09:45:41.042Z,11.10
2022-10-09T09:48:12.611Z,11.30
2022-10-09T09:50:50.524Z,11.30
2022-10-09T09:53:32.151Z,11.50
2022-10-09T09:55:59.236Z,11.50
2022-10-09T09:58:39.694Z,11.70
2022-10-09T10:01:07.679Z,11.90
2022-10-09T10:03:36.287Z,12.00
2022-10-09T10:06:03.899Z,12.20
2022-10-09T10:08:33.445Z,12.30
2022-10-09T10:11:05.072Z,12.30
2022-10-09T10:13:38.627Z,12.50
2022-10-09T10:16:07.869Z,12.60
2022-10-09T10:18:39.929Z,12.80
2022-10-09T10:21:17.250Z,13.00
2022-10-09T10:23:56.390Z,13.20
2022-10-09T10:26:51.535Z,13.40
2022-10-09T10:29:27.305Z,13.50
2022-10-09T10:31:59.997Z,13.60
2022-10-09T10:34:37.729Z,13.80
2022-10-09T10:37:10.753Z,14.10
2022-10-09T10:39:54.049Z,14.30
2022-10-09T10:43:01.837Z,14.60
2022-10-09T10:45:39.919Z,14.80
2022-10-09T10:48:13.005Z,14.90
2022-10-09T10:50:55.078Z,15.00
2022-10-09T10:53:46.937Z,15.00
2022-10-09T10:56:29.647Z,15.30
2022-10-09T10:59:15.451Z,15.60
2022-10-09T11:02:10.937Z,15.70
2022-10-09T11:05:15.156Z,15.80
2022-10-09T11:07:51.049Z,15.90
2022-10-09T11:10:26.349Z,15.90
2022-10-09T11:13:04.566Z,16.00
2022-10-09T11:15:53.859Z,16.00
2022-10-09T11:18:35.558Z,15.90
2022-10-09T11:21:11.686Z,16.00
2022-10-09T11:23:48.252Z,16.00
2022-10-09T11:26:35.358Z,16.10
2022-10-09T11:29:31.085Z,16.20
2022-10-09T11:32:01.036Z,16.30
2022-10-09T11:34:37.389Z,16.30
2022-10-09T11:37:11.238Z,16.40
2022-10-09T11:39:39.498Z,16.40
2022-10-09T11:42:08.117Z,16.50
2022-10-09T11:44:48.626Z,16.60
2022-10-09T11:47:43.911Z,16.70
2022-10-09T11:50:22.867Z,16.80
2022-10-09T11:53:10.029Z,16.80
2022-10-09T11:55:37.939Z,16.70
2022-10-09T11:58:19.816Z,16.70
2022-10-09T12:00:50.558Z,16.60
2022-10-09T12:03:44.066Z,16.60
2022-10-09T12:06:16.704Z,16.80
2022-10-09T12:09:07.351Z,16.80
2022-10-09T12:11:35.197Z,16.60
2022-10-09T12:14:08.274Z,16.60
2022-10-09T12:16:46.186Z,16.80
2022-10-09T12:19:39.561Z,17.00
2022-10-09T12:22:18.189Z,17.20
2022-10-09T12:24:51.377Z,17.20
2022-10-09T12:27:25.004Z,17.30
2022-10-09T12:29:58.893Z,17.30
2022-10-09T12:32:38.001Z,17.40
2022-10-09T12:35:33.077Z,17.50
2022-10-09T12:38:00.124Z,17.60
2022-10-09T12:40:29.918Z,17.60
2022-10-09T12:42:59.057Z,17.70
2022-10-09T12:45:30.289Z,17.70
2022-10-09T12:48:10.461Z,17.60
2022-10-09T12:50:37.638Z,17.60
2022-10-09T12:53:11.632Z,17.70
2022-10-09T12:55:45.840Z,17.80
2022-10-09T12:58:19.661Z,17.80
2022-10-09T13:00:53.177Z,17.80
2022-10-09T13:03:41.090Z,17.80
2022-10-09T13:06:15.241Z,17.80
2022-10-09T13:08:42.583Z,17.80
2022-10-09T13:11:18.667Z,17.90
2022-10-09T13:13:52.905Z,18.00
2022-10-09T13:16:19.926Z,18.00
2022-10-09T13:19:01.474Z,18.10
2022-10-09T13:21:34.301Z,18.10
2022-10-09T13:24:13.221Z,18.20
2022-10-09T13:26:43.564Z,18.30
2022-10-09T13:29:13.259Z,18.40
2022-10-09T13:31:43.828Z,18.30
2022-10-09T13:34:16.279Z,18.50
2022-10-09T13:36:43.189Z,18.60
2022-10-09T13:39:16.561Z,18.70
2022-10-09T13:41:46.041Z,18.90
2022-10-09T13:44:12.929Z,19.00
2022-10-09T13:46:39.886Z,18.90
2022-10-09T13:49:06.831Z,19.00
2022-10-09T13:51:34.650Z,19.00
2022-10-09T13:54:01.617Z,19.20
2022-10-09T13:56:29.694Z,19.30
2022-10-09T13:58:56.634Z,19.40
2022-10-09T14:01:23.602Z,19.40
2022-10-09T14:03:50.685Z,19.50
2022-10-09T14:06:17.879Z,19.40
2022-10-09T14:08:44.701Z,19.40
2022-10-09T14:11:11.579Z,19.40
2022-10-09T14:13:38.487Z,19.40
2022-10-09T14:16:06.804Z,19.30
2022-10-09T14:18:34.683Z,19.30
2022-10-09T14:21:14.984Z,19.30
2022-10-09T14:23:42.826Z,19.20
2022-10-09T14:26:09.709Z,19.10
2022-10-09T14:28:36.991Z,19.00
2022-10-09T14:31:08.271Z,19.00
2022-10-09T14:33:35.293Z,19.20
2022-10-09T14:36:11.484Z,19.30
2022-10-09T14:38:39.639Z,19.40
2022-10-09T14:41:07.360Z,19.40
2022-10-09T14:43:34.663Z,19.50
2022-10-09T14:46:12.107Z,19.40
2022-10-09T14:48:40.065Z,19.50
2022-10-09T14:51:10.280Z,19.50
2022-10-09T14:53:37.169Z,19.50
2022-10-09T14:56:06.929Z,19.30
2022-10-09T14:58:35.732Z,19.30
2022-10-09T15:01:03.842Z,19.20
2022-10-09T15:03:31.061Z,19.20
2022-10-09T15:05:59.029Z,19.20
2022-10-09T15:08:26.384Z,19.20
2022-10-09T15:10:53.359Z,19.10
2022-10-09T15:13:20.313Z,18.90
2022-10-09T15:15:47.366Z,18.70
2022-10-09T15:18:14.601Z,18.60
2022-10-09T15:20:44.306Z,18.50
2022-10-09T15:23:12.161Z,18.40
2022-10-09T15:25:39.209Z,18.20
2022-10-09T15:28:06.660Z,17.90
2022-10-09T15:30:34.249Z,17.80
2022-10-09T15:33:02.894Z,17.60
2022-10-09T15:35:31.905Z,17.60
2022-10-09T15:37:58.799Z,17.60
2022-10-09T15:40:25.735Z,17.50
2022-10-09T15:42:52.904Z,17.30
2022-10-09T15:45:20.082Z,17.20
2022-10-09T15:47:51.219Z,17.10
2022-10-09T15:50:18.542Z,17.00
2022-10-09T15:52:45.467Z,16.90
2022-10-09T15:55:12.372Z,16.80
2022-10-09T15:57:39.244Z,16.70
2022-10-09T16:00:06.884Z,16.60
2022-10-09T16:02:33.748Z,16.50
2022-10-09T16:05:00.654Z,16.30
2022-10-09T16:07:27.871Z,16.30
2022-10-09T16:09:54.906Z,16.10
2022-10-09T16:12:21.895Z,16.00
2022-10-09T16:14:48.862Z,16.00
2022-10-09T16:17:15.750Z,15.80
2022-10-09T16:19:42.678Z,15.70
2022-10-09T16:22:09.598Z,15.60
2022-10-09T16:24:36.466Z,15.40
2022-10-09T16:27:03.506Z,15.30
2022-10-09T16:29:30.565Z,15.10
2022-10-09T16:31:57.461Z,15.00
2022-10-09T16:34:24.412Z,14.90
2022-10-09T16:36:51.300Z,14.70
2022-10-09T16:39:19.491Z,14.60
2022-10-09T16:41:46.610Z,14.40
2022-10-09T16:44:14.223Z,14.30
2022-10-09T16:46:41.164Z,14.20
2022-10-09T16:49:19.892Z,14.10
2022-10-09T16:51:50.077Z,13.90
2022-10-09T16:54:16.944Z,13.80
2022-10-09T16:56:43.893Z,13.60
2022-10-09T16:59:12.263Z,13.50
2022-10-09T17:01:43.637Z,13.40
2022-10-09T17:04:11.942Z,13.20
2022-10-09T17:06:43.784Z,13.10
2022-10-09T17:09:14.006Z,13.00
2022-10-09T17:11:41.790Z,12.80
2022-10-09T17:14:08.722Z,12.70
2022-10-09T17:16:38.662Z,12.50
2022-10-09T17:19:06.716Z,12.40
2022-10-09T17:21:34.814Z,12.30
2022-10-09T17:24:04.660Z,12.20
2022-10-09T17:26:31.697Z,12.00
2022-10-09T17:29:02.456Z,11.90
2022-10-09T17:31:30.144Z,11.80
2022-10-09T17:33:59.603Z,11.70
2022-10-09T17:36:28.683Z,11.50
2022-10-09T17:38:55.758Z,11.50
2022-10-09T17:41:24.319Z,11.40
2022-10-09T17:43:53.125Z,11.30
2022-10-09T17:46:20.763Z,11.30
2022-10-09T17:48:55.946Z,11.20
2022-10-09T17:51:25.316Z,11.10
2022-10-09T17:53:53.233Z,11.10
2022-10-09T17:56:20.543Z,11.00
2022-10-09T17:58:48.646Z,11.00
2022-10-09T18:01:17.048Z,11.00
2022-10-09T18:03:45.086Z,10.90
2022-10-09T18:06:14.653Z,10.80
2022-10-09T18:08:41.980Z,10.80
2022-10-09T18:11:12.992Z,10.70
2022-10-09T18:13:41.031Z,10.60
2022-10-09T18:16:11.843Z,10.60
2022-10-09T18:18:38.938Z,10.50
2022-10-09T18:21:08.776Z,10.40
2022-10-09T18:23:36.065Z,10.40
2022-10-09T18:26:11.183Z,10.30
2022-10-09T18:28:38.353Z,10.20
2022-10-09T18:31:09.943Z,10.20
2022-10-09T18:33:36.904Z,10.00
2022-10-09T18:36:19.856Z,10.00
2022-10-09T18:38:49.385Z,9.90
2022-10-09T18:41:17.385Z,9.80
2022-10-09T18:43:44.490Z,9.60
2022-10-09T18:46:11.561Z,9.60
2022-10-09T18:48:40.829Z,9.60
2022-10-09T18:51:10.893Z,9.50
2022-10-09T18:53:38.692Z,9.40
2022-10-09T18:56:07.153Z,9.40
2022-10-09T18:58:35.140Z,9.30
2022-10-09T19:01:06.646Z,9.20
2022-10-09T19:03:34.387Z,9.10
2022-10-09T19:06:01.275Z,9.10
2022-10-09T19:08:28.153Z,9.00
2022-10-09T19:10:55.345Z,8.90
2022-10-09T19:13:22.309Z,8.90
2022-10-09T19:16:00.812Z,8.80
2022-10-09T19:18:27.795Z,8.70
2022-10-09T19:20:54.676Z,8.60
2022-10-09T19:23:22.521Z,8.60
2022-10-09T19:25:52.715Z,8.50
2022-10-09T19:28:19.875Z,8.50
2022-10-09T19:30:47.449Z,8.40
2022-10-09T19:33:14.622Z,8.40
2022-10-09T19:35:45.610Z,8.30
2022-10-09T19:38:13.158Z,8.20
2022-10-09T19:40:39.992Z,8.20
2022-10-09T19:43:07.188Z,8.20
2022-10-09T19:45:34.327Z,8.10
2022-10-09T19:48:01.261Z,8.00
2022-10-09T19:50:28.427Z,8.00
2022-10-09T19:52:55.567Z,7.90
2022-10-09T19:55:23.640Z,7.90
2022-10-09T19:57:52.655Z,7.90
2022-10-09T20:00:19.770Z,7.90
2022-10-09T20:02:46.765Z,7.90
2022-10-09T20:05:13.780Z,7.80
2022-10-09T20:07:40.725Z,7.70
2022-10-09T20:10:07.951Z,7.70
2022-10-09T20:12:34.844Z,7.60
2022-10-09T20:15:02.336Z,7.60
2022-10-09T20:17:29.136Z,7.60
2022-10-09T20:19:56.090Z,7.60
2022-10-09T20:22:26.862Z,7.50
2022-10-09T20:24:53.806Z,7.40
2022-10-09T20:27:20.805Z,7.40
2022-10-09T20:29:48.136Z,7.40
2022-10-09T20:32:15.152Z,7.40
2022-10-09T20:34:42.199Z,7.30
2022-10-09T20:37:09.232Z,7.30
2022-10-09T20:39:36.095Z,7.30
2022-10-09T20:42:03.043Z,7.20
2022-10-09T20:44:29.932Z,7.20
2022-10-09T20:46:56.879Z,7.20
2022-10-09T20:49:23.852Z,7.20
2022-10-09T20:51:52.639Z,7.10
2022-10-09T20:54:21.488Z,7.00
2022-10-09T20:56:49.593Z,7.00
2022-10-09T20:59:17.109Z,7.00
2022-10-09T21:01:44.944Z,7.00
2022-10-09T21:04:12.228Z,6.90
2022-10-09T21:06:39.290Z,6.90
2022-10-09T21:09:06.622Z,6.80
2022-10-09T21:11:34.748Z,6.80
2022-10-09T21:14:02.973Z,6.70
2022-10-09T21:16:29.945Z,6.70
2022-10-09T21:19:02.398Z,6.60
2022-10-09T21:21:30.232Z,6.60
2022-10-09T21:23:58.535Z,6.60
2022-10-09T21:26:26.868Z,6.50
2022-10-09T21:28:59.019Z,6.50
2022-10-09T21:31:28.817Z,6.50
2022-10-09T21:33:56.791Z,6.40
2022-10-09T21:36:36.576Z,6.40
2022-10-09T21:39:05.565Z,6.40
2022-10-09T21:41:33.027Z,6.40
2022-10-09T21:44:00.276Z,6.30
2022-10-09T21:46:27.976Z,6.30
2022-10-09T21:48:54.995Z,6.30
2022-10-09T21:51:21.960Z,6.40
2022-10-09T21:53:48.918Z,6.30
2022-10-09T21:56:17.366Z,6.30
2022-10-09T21:58:48.731Z,6.20
2022-10-09T22:01:16.447Z,6.20
2022-10-09T22:03:43.296Z,6.20
2022-10-09T22:06:18.990Z,6.20
2022-10-09T22:08:47.926Z,6.10
2022-10-09T22:11:16.032Z,6.10
2022-10-09T22:13:42.968Z,6.10
2022-10-09T22:16:13.206Z,6.10
2022-10-09T22:18:40.505Z,6.00
2022-10-09T22:21:14.595Z,6.00
2022-10-09T22:23:41.876Z,6.10
2022-10-09T22:26:13.503Z,6.10
2022-10-09T22:28:40.651Z,6.10
2022-10-09T22:31:27.867Z,6.00
2022-10-09T22:33:55.845Z,6.00
2022-10-09T22:36:25.675Z,5.90
2022-10-09T22:38:57.655Z,6.00
2022-10-09T22:41:25.988Z,6.00
2022-10-09T22:43:55.851Z,6.00
2022-10-09T22:46:25.982Z,6.00
2022-10-09T22:48:53.223Z,6.00
2022-10-09T22:51:22.153Z,6.00
2022-10-09T22:53:49.896Z,6.10
2022-10-09T22:56:25.679Z,6.10
2022-10-09T22:58:53.349Z,6.20
2022-10-09T23:01:32.224Z,6.20
2022-10-09T23:04:01.979Z,6.30
2022-10-09T23:06:29.124Z,6.30
2022-10-09T23:08:56.130Z,6.30
2022-10-09T23:11:23.391Z,6.40
2022-10-09T23:13:55.089Z,6.40
2022-10-09T23:16:22.549Z,6.50
2022-10-09T23:18:49.725Z,6.50
2022-10-09T23:21:19.620Z,6.50
2022-10-09T23:23:47.902Z,6.70
2022-10-09T23:26:20.358Z,6.80
2022-10-09T23:28:59.329Z,6.90
2022-10-09T23:31:27.291Z,7.10
2022-10-09T23:33:55.760Z,7.30
2022-10-09T23:36:25.253Z,7.50
2022-10-09T23:38:52.489Z,7.70
2022-10-09T23:41:25.879Z,7.90
2022-10-09T23:43:53.556Z,8.10
2022-10-09T23:46:23.574Z,8.20
2022-10-09T23:48:51.357Z,8.40
2022-10-09T23:51:20.497Z,8.50
2022-10-09T23:53:47.695Z,8.70
2022-10-09T23:56:19.276Z,8.80
2022-10-09T23:58:46.826Z,8.90
